<?xml version="1.0" encoding="UTF-8" standalone="no" ?>
<gpx xmlns="http://www.topografix.com/GPX/1/1" xmlns:xsi="http://www.w3.org/2001/XMLSchema-instance" xsi:schemaLocation="http://www.topografix.com/GPX/1/1 http://www.topografix.com/GPX/1/1/gpx.xsd" version="1.1" creator="VisuGPX - https://www.visugpx.com">
  <metadata>
    <name>retour Canyon Mas Calsan</name>
    <desc><![CDATA[retour court mais intense au début.
Passage par le raccourci pour arriver au parking]]></desc>
  </metadata>
  <trk>
    <name><![CDATA[2016-04-16 12:21 retour m'as calsan ]]></name>
    <desc><![CDATA[<p>Temps de départ: 04/16/2016 12:21</p><p>Temps d'arrivée: 04/16/2016 12:33</p><p>Distance: 0,5 km (00:11)</p><p>Temps déplacement: 00:08</p><p>Vitesse moyenne: 2,3 km/h</p><p>Vitesse moyenne mouvement: 3 km/h</p><p>Vitess Max.: 5km/h</p><p>Altitude minimale: 228 m</p><p>Altitude maximale: 307 m</p><p>Vitesse d'élévation: 468,2 m/h</p><p>Vitesse de descente: -126,8 m/h</p><p>Gain Altitude: 63 m</p><p>Perte Altitude: -6 m</p><p>Temps d'élévation: 00:08</p><p>Temps de descente: 00:03</p><hr align="center" width="480" style="height: 2px; width: 517px"/>]]></desc>
    <trkseg>
      <trkpt lat="42.47339" lon="2.71533">
        <ele>245.13</ele>
        <time>2016-04-16T10:21:43Z</time>
      </trkpt>
      <trkpt lat="42.47332" lon="2.7151">
        <ele>228.96</ele>
        <time>2016-04-16T10:23:44Z</time>
      </trkpt>
      <trkpt lat="42.47329" lon="2.71485">
        <ele>239.16</ele>
        <time>2016-04-16T10:24:13Z</time>
      </trkpt>
      <trkpt lat="42.47318" lon="2.71466">
        <ele>247.89</ele>
        <time>2016-04-16T10:24:43Z</time>
      </trkpt>
      <trkpt lat="42.47315" lon="2.71441">
        <ele>238.26</ele>
        <time>2016-04-16T10:24:58Z</time>
      </trkpt>
      <trkpt lat="42.47325" lon="2.71421">
        <ele>252.97</ele>
        <time>2016-04-16T10:25:34Z</time>
      </trkpt>
      <trkpt lat="42.47329" lon="2.71397">
        <ele>260.93</ele>
        <time>2016-04-16T10:26:13Z</time>
      </trkpt>
      <trkpt lat="42.47342" lon="2.71379">
        <ele>280.33</ele>
        <time>2016-04-16T10:27:06Z</time>
      </trkpt>
      <trkpt lat="42.47354" lon="2.7136">
        <ele>274.31</ele>
        <time>2016-04-16T10:27:35Z</time>
      </trkpt>
      <trkpt lat="42.47366" lon="2.71341">
        <ele>277.08</ele>
        <time>2016-04-16T10:28:27Z</time>
      </trkpt>
      <trkpt lat="42.47361" lon="2.71317">
        <ele>286.17</ele>
        <time>2016-04-16T10:28:53Z</time>
      </trkpt>
      <trkpt lat="42.47352" lon="2.71294">
        <ele>287.92</ele>
        <time>2016-04-16T10:29:24Z</time>
      </trkpt>
      <trkpt lat="42.47349" lon="2.7127">
        <ele>287.93</ele>
        <time>2016-04-16T10:29:43Z</time>
      </trkpt>
      <trkpt lat="42.47341" lon="2.71247">
        <ele>292.13</ele>
        <time>2016-04-16T10:30:02Z</time>
      </trkpt>
      <trkpt lat="42.47359" lon="2.7124">
        <ele>293.13</ele>
        <time>2016-04-16T10:30:43Z</time>
      </trkpt>
      <trkpt lat="42.47346" lon="2.7122">
        <ele>291.14</ele>
        <time>2016-04-16T10:31:20Z</time>
      </trkpt>
      <trkpt lat="42.47331" lon="2.71207">
        <ele>291.12</ele>
        <time>2016-04-16T10:31:38Z</time>
      </trkpt>
      <trkpt lat="42.47319" lon="2.71187">
        <ele>295.09</ele>
        <time>2016-04-16T10:31:56Z</time>
      </trkpt>
      <trkpt lat="42.47318" lon="2.71162">
        <ele>298.29</ele>
        <time>2016-04-16T10:32:11Z</time>
      </trkpt>
      <trkpt lat="42.47318" lon="2.71136">
        <ele>302.94</ele>
        <time>2016-04-16T10:32:28Z</time>
      </trkpt>
      <trkpt lat="42.47323" lon="2.71112">
        <ele>307.13</ele>
        <time>2016-04-16T10:32:44Z</time>
      </trkpt>
      <trkpt lat="42.47339" lon="2.71099">
        <ele>301.33</ele>
        <time>2016-04-16T10:33:03Z</time>
      </trkpt>
      <trkpt lat="42.47354" lon="2.71082">
        <ele>292.17</ele>
        <time>2016-04-16T10:33:19Z</time>
      </trkpt>
    </trkseg>
  </trk>
</gpx>